createdAt,value
2018-09-11T00:02:01.576Z,5.40
2018-09-11T00:04:29.773Z,5.97
2018-09-11T00:06:57.951Z,6.27
2018-09-11T00:09:26.411Z,8.40
2018-09-11T00:11:54.612Z,5.90
2018-09-11T00:14:22.819Z,6.00
2018-09-11T00:16:51.037Z,6.63
2018-09-11T00:19:19.235Z,7.90
2018-09-11T00:21:47.435Z,6.03
2018-09-11T00:24:15.658Z,6.23
2018-09-11T00:26:43.846Z,6.63
2018-09-11T00:29:12.027Z,6.30
2018-09-11T00:31:40.231Z,5.93
2018-09-11T00:34:09.359Z,6.10
2018-09-11T00:36:37.675Z,5.97
2018-09-11T00:39:06.467Z,5.50
2018-09-11T00:41:34.654Z,6.10
2018-09-11T00:44:02.849Z,6.30
2018-09-11T00:46:31.084Z,7.70
2018-09-11T00:48:59.291Z,6.17
2018-09-11T00:51:27.497Z,7.23
2018-09-11T00:53:55.859Z,7.10
2018-09-11T00:56:24.114Z,8.43
2018-09-11T00:58:52.768Z,6.53
2018-09-11T01:01:21.047Z,6.67
2018-09-11T01:03:49.412Z,6.20
2018-09-11T01:06:17.596Z,6.50
2018-09-11T01:08:45.796Z,7.17
2018-09-11T01:11:13.971Z,7.33
2018-09-11T01:13:42.465Z,6.33
2018-09-11T01:16:10.751Z,7.87
2018-09-11T01:18:39.014Z,6.67
2018-09-11T01:21:07.240Z,7.23
2018-09-11T01:23:35.580Z,6.13
2018-09-11T01:26:04.136Z,6.70
2018-09-11T01:28:32.336Z,5.97
2018-09-11T01:31:00.515Z,7.03
2018-09-11T01:33:28.740Z,7.47
2018-09-11T01:35:56.955Z,6.83
2018-09-11T01:38:25.164Z,6.30
2018-09-11T01:40:53.473Z,5.73
2018-09-11T01:43:21.660Z,6.47
2018-09-11T01:45:49.859Z,6.73
2018-09-11T01:48:18.075Z,6.73
2018-09-11T01:50:46.272Z,6.00
2018-09-11T01:53:14.485Z,6.70
2018-09-11T01:55:42.703Z,7.50
2018-09-11T01:58:10.892Z,6.30
2018-09-11T02:00:39.125Z,6.17
2018-09-11T02:03:07.311Z,6.67
2018-09-11T02:05:35.812Z,6.53
2018-09-11T02:08:07.018Z,6.63
2018-09-11T02:10:35.217Z,8.13
2018-09-11T02:13:03.607Z,6.60
2018-09-11T02:15:31.821Z,6.40
2018-09-11T02:18:00.211Z,6.57
2018-09-11T02:20:28.415Z,6.37
2018-09-11T02:22:56.587Z,6.83
2018-09-11T02:25:24.811Z,7.00
2018-09-11T02:27:52.987Z,6.40
2018-09-11T02:30:21.544Z,8.47
2018-09-11T02:32:49.748Z,6.20
2018-09-11T02:35:17.944Z,6.10
2018-09-11T02:37:46.167Z,6.07
2018-09-11T02:40:14.355Z,5.93
2018-09-11T02:42:42.539Z,6.67
2018-09-11T02:45:10.735Z,6.33
2018-09-11T02:47:39.020Z,6.70
2018-09-11T02:50:07.406Z,9.43
2018-09-11T02:52:35.637Z,6.80
2018-09-11T02:55:04.221Z,7.23
2018-09-11T02:57:32.431Z,7.47
2018-09-11T03:00:00.588Z,6.53
2018-09-11T03:02:28.755Z,8.00
2018-09-11T03:04:56.928Z,7.30
2018-09-11T03:07:25.281Z,6.70
2018-09-11T03:09:53.455Z,7.43
2018-09-11T03:12:21.653Z,6.30
2018-09-11T03:14:49.821Z,6.70
2018-09-11T03:17:18.068Z,7.83
2018-09-11T03:19:46.233Z,6.67
2018-09-11T03:22:14.403Z,9.47
2018-09-11T03:24:42.576Z,7.50
2018-09-11T03:27:11.102Z,6.53
2018-09-11T03:29:39.329Z,6.87
2018-09-11T03:32:07.525Z,7.07
2018-09-11T03:34:35.722Z,7.13
2018-09-11T03:37:03.909Z,8.20
2018-09-11T03:39:32.083Z,7.77
2018-09-11T03:42:00.280Z,6.73
2018-09-11T03:44:28.439Z,7.40
2018-09-11T03:46:56.624Z,7.23
2018-09-11T03:49:24.853Z,8.07
2018-09-11T03:51:52.991Z,9.07
2018-09-11T03:54:21.337Z,6.87
2018-09-11T03:56:49.770Z,7.43
2018-09-11T03:59:18.023Z,8.03
2018-09-11T04:01:46.131Z,7.13
2018-09-11T04:04:14.395Z,8.07
2018-09-11T04:06:42.572Z,7.00
2018-09-11T04:09:12.370Z,8.33
2018-09-11T04:11:40.958Z,7.33
2018-09-11T04:14:09.335Z,7.10
2018-09-11T04:16:37.775Z,6.43
2018-09-11T04:19:06.015Z,8.33
2018-09-11T04:21:34.211Z,7.40
2018-09-11T04:24:02.381Z,7.67
2018-09-11T04:26:30.555Z,6.93
2018-09-11T04:28:58.762Z,7.13
2018-09-11T04:31:27.188Z,7.27
2018-09-11T04:33:55.362Z,7.43
2018-09-11T04:36:23.551Z,7.27
2018-09-11T04:38:51.719Z,7.37
2018-09-11T04:41:20.137Z,8.07
2018-09-11T04:43:48.325Z,7.20
2018-09-11T04:46:16.874Z,7.90
2018-09-11T04:48:45.820Z,9.00
2018-09-11T04:51:14.135Z,8.70
2018-09-11T04:53:42.315Z,8.30
2018-09-11T04:56:10.558Z,7.83
2018-09-11T04:58:38.686Z,8.63
2018-09-11T05:01:08.965Z,7.63
2018-09-11T05:03:37.475Z,8.57
2018-09-11T05:06:05.648Z,7.33
2018-09-11T05:08:33.823Z,8.87
2018-09-11T05:11:02.033Z,8.43
2018-09-11T05:13:30.199Z,7.77
2018-09-11T05:15:58.379Z,9.17
2018-09-11T05:18:26.536Z,8.23
2018-09-11T05:20:54.722Z,8.00
2018-09-11T05:23:23.075Z,8.17
2018-09-11T05:25:51.284Z,11.10
2018-09-11T05:28:19.449Z,7.83
2018-09-11T05:30:47.629Z,8.00
2018-09-11T05:33:15.771Z,7.90
2018-09-11T05:35:43.943Z,8.43
2018-09-11T05:38:12.105Z,7.53
2018-09-11T05:40:40.273Z,9.27
2018-09-11T05:43:08.436Z,8.40
2018-09-11T05:45:36.618Z,10.43
2018-09-11T05:48:04.811Z,9.00
2018-09-11T05:50:32.964Z,7.93
2018-09-11T05:53:01.114Z,7.63
2018-09-11T05:55:29.291Z,8.47
2018-09-11T05:57:57.476Z,7.53
2018-09-11T06:00:25.639Z,7.90
2018-09-11T06:02:53.812Z,8.97
2018-09-11T06:05:21.991Z,9.93
2018-09-11T06:07:50.174Z,8.13
2018-09-11T06:10:18.349Z,8.27
2018-09-11T06:12:46.599Z,7.70
2018-09-11T06:15:14.807Z,8.13
2018-09-11T06:17:42.967Z,7.40
2018-09-11T06:20:11.183Z,7.43
2018-09-11T06:22:39.374Z,9.83
2018-09-11T06:25:07.572Z,10.63
2018-09-11T06:27:35.744Z,12.17
2018-09-11T06:30:04.207Z,11.23
2018-09-11T06:32:32.489Z,9.00
2018-09-11T06:35:00.715Z,11.13
2018-09-11T06:37:29.060Z,10.93
2018-09-11T06:39:57.228Z,15.07
2018-09-11T06:42:25.471Z,10.63
2018-09-11T06:44:53.792Z,10.87
2018-09-11T06:47:21.959Z,13.53
2018-09-11T06:49:50.837Z,14.73
2018-09-11T06:52:19.008Z,14.23
2018-09-11T06:54:47.428Z,9.77
2018-09-11T06:57:15.563Z,10.67
2018-09-11T06:59:43.760Z,12.20
2018-09-11T07:02:11.934Z,8.17
2018-09-11T07:04:40.127Z,10.97
2018-09-11T07:07:08.446Z,11.20
2018-09-11T07:09:36.715Z,9.07
2018-09-11T07:12:04.892Z,8.93
2018-09-11T07:14:33.095Z,8.93
2018-09-11T07:17:01.368Z,11.80
2018-09-11T07:19:29.641Z,10.60
2018-09-11T07:21:57.705Z,9.77
2018-09-11T07:24:25.887Z,8.77
2018-09-11T07:26:54.076Z,11.50
2018-09-11T07:29:22.298Z,12.33
2018-09-11T07:31:50.531Z,10.30
2018-09-11T07:34:18.716Z,9.70
2018-09-11T07:36:46.893Z,8.80
2018-09-11T07:39:15.054Z,7.73
2018-09-11T07:41:43.457Z,9.67
2018-09-11T07:44:11.704Z,9.10
2018-09-11T07:46:39.879Z,8.17
2018-09-11T07:49:08.188Z,7.97
2018-09-11T07:51:36.741Z,9.10
2018-09-11T07:54:04.959Z,8.60
2018-09-11T07:56:33.091Z,8.80
2018-09-11T07:59:01.429Z,9.90
2018-09-11T08:01:29.576Z,7.93
2018-09-11T08:03:57.770Z,9.67
2018-09-11T08:06:25.947Z,8.03
2018-09-11T08:08:54.127Z,7.10
2018-09-11T08:11:28.369Z,7.03
2018-09-11T08:13:56.740Z,7.10
2018-09-11T08:16:24.923Z,9.17
2018-09-11T08:18:53.163Z,10.10
2018-09-11T08:21:22.324Z,7.90
2018-09-11T08:23:50.503Z,6.63
2018-09-11T08:26:19.877Z,11.57
2018-09-11T08:28:48.034Z,7.17
2018-09-11T08:31:16.198Z,6.97
2018-09-11T08:33:44.391Z,6.77
2018-09-11T08:36:12.571Z,10.70
2018-09-11T08:38:41.033Z,7.87
2018-09-11T08:41:09.300Z,8.15
2018-09-11T08:43:37.502Z,7.53
2018-09-11T08:46:06.207Z,7.93
2018-09-11T08:48:34.388Z,6.33
2018-09-11T08:51:02.581Z,7.67
2018-09-11T08:53:30.748Z,7.00
2018-09-11T08:55:58.917Z,6.35
2018-09-11T08:58:27.135Z,6.70
2018-09-11T09:00:55.263Z,9.35
2018-09-11T09:03:23.535Z,8.78
2018-09-11T09:05:51.783Z,6.15
2018-09-11T09:08:20.159Z,8.60
2018-09-11T09:10:48.449Z,8.30
2018-09-11T09:13:16.634Z,11.30
2018-09-11T09:15:44.907Z,8.75
2018-09-11T09:18:13.032Z,7.42
2018-09-11T09:20:41.226Z,6.72
2018-09-11T09:23:09.416Z,6.92
2018-09-11T09:25:37.769Z,7.50
2018-09-11T09:28:05.923Z,6.75
2018-09-11T09:30:34.357Z,6.42
2018-09-11T09:33:02.694Z,6.95
2018-09-11T09:35:30.854Z,5.45
2018-09-11T09:37:59.049Z,5.45
2018-09-11T09:40:27.241Z,8.05
2018-09-11T09:42:55.484Z,9.00
2018-09-11T09:45:23.767Z,4.60
2018-09-11T09:47:51.978Z,5.65
2018-09-11T09:50:20.165Z,4.67
2018-09-11T09:52:48.346Z,6.15
2018-09-11T09:55:16.549Z,6.42
2018-09-11T09:57:44.770Z,8.38
2018-09-11T10:00:17.172Z,4.90
2018-09-11T10:02:45.353Z,5.00
2018-09-11T10:05:13.544Z,6.40
2018-09-11T10:07:41.740Z,5.35
2018-09-11T10:10:09.927Z,4.58
2018-09-11T10:12:38.107Z,6.65
2018-09-11T10:15:06.420Z,7.85
2018-09-11T10:17:34.652Z,5.72
2018-09-11T10:20:02.846Z,7.87
2018-09-11T10:22:31.044Z,4.50
2018-09-11T10:24:59.264Z,4.80
2018-09-11T10:27:28.336Z,4.72
2018-09-11T10:29:56.513Z,5.80
2018-09-11T10:32:24.707Z,4.42
2018-09-11T10:34:53.063Z,6.92
2018-09-11T10:37:21.304Z,6.83
2018-09-11T10:39:49.642Z,4.20
2018-09-11T10:42:17.852Z,6.58
2018-09-11T10:44:46.041Z,5.00
2018-09-11T10:47:14.292Z,4.37
2018-09-11T10:49:42.557Z,4.42
2018-09-11T10:52:10.747Z,4.47
2018-09-11T10:54:38.935Z,5.22
2018-09-11T10:57:07.202Z,7.58
2018-09-11T10:59:35.390Z,4.67
2018-09-11T11:02:03.686Z,4.17
2018-09-11T11:04:31.988Z,4.50
2018-09-11T11:07:01.424Z,6.08
2018-09-11T11:09:29.596Z,4.20
2018-09-11T11:12:02.161Z,4.95
2018-09-11T11:14:30.409Z,5.05
2018-09-11T11:16:58.612Z,6.00
2018-09-11T11:19:27.022Z,4.67
2018-09-11T11:21:55.499Z,4.50
2018-09-11T11:24:23.683Z,6.05
2018-09-11T11:26:51.990Z,5.37
2018-09-11T11:29:20.228Z,7.33
2018-09-11T11:31:48.404Z,6.30
2018-09-11T11:34:16.596Z,4.20
2018-09-11T11:36:44.900Z,4.90
2018-09-11T11:39:12.969Z,5.17
2018-09-11T11:41:41.199Z,5.92
2018-09-11T11:44:09.395Z,5.70
2018-09-11T11:46:37.559Z,3.92
2018-09-11T11:49:05.724Z,4.15
2018-09-11T11:51:34.770Z,5.03
2018-09-11T11:54:02.947Z,4.12
2018-09-11T11:56:31.288Z,4.58
2018-09-11T11:58:59.691Z,3.27
2018-09-11T12:01:27.884Z,4.03
2018-09-11T12:03:56.057Z,3.83
2018-09-11T12:06:24.228Z,5.60
2018-09-11T12:08:52.439Z,5.35
2018-09-11T12:11:20.607Z,3.90
2018-09-11T12:13:48.771Z,4.53
2018-09-11T12:16:16.957Z,3.60
2018-09-11T12:18:45.103Z,3.83
2018-09-11T12:21:13.307Z,3.87
2018-09-11T12:23:41.483Z,3.42
2018-09-11T12:26:09.760Z,3.33
2018-09-11T12:28:37.883Z,4.00
2018-09-11T12:31:06.145Z,5.08
2018-09-11T12:33:34.354Z,4.35
2018-09-11T12:36:02.676Z,4.55
2018-09-11T12:38:30.886Z,4.60
2018-09-11T12:40:59.141Z,3.67
2018-09-11T12:43:28.084Z,3.83
2018-09-11T12:45:56.761Z,3.80
2018-09-11T12:48:25.015Z,4.30
2018-09-11T12:50:53.126Z,3.42
2018-09-11T12:53:21.312Z,3.58
2018-09-11T12:55:49.487Z,3.75
2018-09-11T12:58:17.684Z,5.53
2018-09-11T13:00:45.911Z,4.25
2018-09-11T13:03:14.095Z,3.30
2018-09-11T13:08:12.637Z,3.52
2018-09-11T13:10:41.828Z,3.17
2018-09-11T13:13:10.031Z,3.52
2018-09-11T13:15:39.135Z,3.62
2018-09-11T13:18:07.312Z,4.03
2018-09-11T13:20:38.004Z,3.50
2018-09-11T13:23:10.135Z,4.12
2018-09-11T13:25:39.250Z,3.47
2018-09-11T13:28:09.953Z,4.67
2018-09-11T13:30:38.863Z,3.37
2018-09-11T13:33:07.396Z,3.60
2018-09-11T13:35:37.664Z,3.90
2018-09-11T13:38:07.572Z,4.17
2018-09-11T13:40:37.127Z,3.85
2018-09-11T13:43:05.976Z,3.65
2018-09-11T13:45:36.764Z,3.95
2018-09-11T13:48:08.428Z,3.00
2018-09-11T13:50:36.629Z,3.20
2018-09-11T13:53:06.974Z,3.17
2018-09-11T13:55:38.696Z,3.62
2018-09-11T13:58:07.350Z,4.28
2018-09-11T14:00:37.972Z,3.25
2018-09-11T14:03:07.576Z,3.15
2018-09-11T14:05:36.054Z,3.77
2018-09-11T14:08:04.299Z,3.55
2018-09-11T14:10:32.482Z,3.55
2018-09-11T14:13:00.686Z,3.58
2018-09-11T14:15:28.862Z,3.42
2018-09-11T14:17:57.040Z,2.98
2018-09-11T14:20:25.263Z,4.08
2018-09-11T14:22:54.245Z,4.45
2018-09-11T14:25:22.436Z,3.27
2018-09-11T14:27:50.660Z,4.97
2018-09-11T14:30:20.191Z,3.55
2018-09-11T14:32:50.345Z,3.95
2018-09-11T14:35:21.180Z,3.75
2018-09-11T14:37:49.371Z,3.77
2018-09-11T14:40:18.133Z,3.77
2018-09-11T14:42:46.311Z,5.28
2018-09-11T14:45:14.724Z,4.05
2018-09-11T14:47:43.854Z,3.22
2018-09-11T14:50:13.673Z,4.12
2018-09-11T14:52:41.943Z,3.60
2018-09-11T14:55:10.607Z,4.08
2018-09-11T14:57:39.112Z,3.65
2018-09-11T15:00:08.894Z,3.30
2018-09-11T15:02:39.197Z,4.05
2018-09-11T15:05:08.772Z,4.80
2018-09-11T15:07:36.999Z,6.30
2018-09-11T15:10:05.204Z,3.70
2018-09-11T15:12:33.408Z,4.85
2018-09-11T15:15:01.755Z,4.47
2018-09-11T15:17:29.996Z,3.65
2018-09-11T15:19:58.174Z,3.30
2018-09-11T15:22:26.385Z,3.70
2018-09-11T15:24:54.544Z,3.60
2018-09-11T15:27:22.720Z,3.80
2018-09-11T15:29:51.231Z,4.33
2018-09-11T15:32:19.384Z,4.08
2018-09-11T15:34:47.608Z,3.65
2018-09-11T15:37:16.054Z,4.12
2018-09-11T15:39:44.212Z,4.40
2018-09-11T15:42:12.415Z,4.37
2018-09-11T15:44:40.600Z,3.40
2018-09-11T15:47:09.358Z,3.77
2018-09-11T15:49:37.468Z,3.83
2018-09-11T15:52:05.660Z,5.03
2018-09-11T15:54:33.864Z,4.00
2018-09-11T15:57:02.030Z,3.75
2018-09-11T15:59:30.242Z,3.67
2018-09-11T16:01:58.406Z,4.85
2018-09-11T16:04:26.577Z,3.42
2018-09-11T16:06:54.763Z,4.15
2018-09-11T16:09:22.928Z,4.45
2018-09-11T16:11:51.448Z,4.97
2018-09-11T16:14:19.759Z,3.70
2018-09-11T16:16:47.960Z,4.15
2018-09-11T16:19:16.226Z,4.58
2018-09-11T16:21:44.451Z,4.58
2018-09-11T16:24:12.794Z,4.30
2018-09-11T16:26:41.509Z,4.03
2018-09-11T16:29:09.724Z,4.03
2018-09-11T16:31:38.520Z,4.28
2018-09-11T16:34:07.120Z,4.03
2018-09-11T16:36:35.397Z,4.50
2018-09-11T16:39:05.279Z,4.72
2018-09-11T16:41:33.447Z,3.83
2018-09-11T16:44:02.203Z,4.80
2018-09-11T16:46:30.391Z,3.83
2018-09-11T16:48:58.576Z,4.47
2018-09-11T16:51:28.352Z,4.80
2018-09-11T16:53:56.744Z,4.00
2018-09-11T16:56:25.037Z,3.80
2018-09-11T16:58:53.288Z,4.37
2018-09-11T17:01:21.543Z,4.08
2018-09-11T17:03:49.946Z,4.45
2018-09-11T17:06:18.235Z,4.30
2018-09-11T17:08:46.588Z,4.33
2018-09-11T17:11:14.725Z,4.28
2018-09-11T17:13:42.910Z,4.43
2018-09-11T17:16:11.427Z,4.70
2018-09-11T17:18:39.698Z,5.17
2018-09-11T17:21:08.157Z,4.25
2018-09-11T17:23:36.563Z,4.00
2018-09-11T17:26:04.771Z,5.43
2018-09-11T17:28:33.323Z,6.60
2018-09-11T17:31:01.713Z,4.00
2018-09-11T17:33:29.883Z,3.90
2018-09-11T17:37:01.033Z,4.13
2018-09-11T17:39:30.935Z,6.20
2018-09-11T17:41:59.175Z,4.27
2018-09-11T17:44:27.465Z,4.00
2018-09-11T17:46:55.764Z,4.53
2018-09-11T17:49:23.951Z,4.27
2018-09-11T17:51:52.237Z,4.20
2018-09-11T17:54:20.427Z,5.00
2018-09-11T17:56:49.196Z,5.27
2018-09-11T17:59:18.102Z,4.47
2018-09-11T18:01:46.404Z,3.93
2018-09-11T18:04:14.713Z,5.23
2018-09-11T18:06:43.068Z,4.23
2018-09-11T18:09:11.561Z,3.97
2018-09-11T18:11:39.914Z,4.93
2018-09-11T18:14:08.248Z,5.80
2018-09-11T18:16:36.496Z,3.90
2018-09-11T18:19:04.944Z,4.20
2018-09-11T18:21:33.177Z,3.83
2018-09-11T18:24:01.397Z,4.27
2018-09-11T18:26:29.638Z,4.70
2018-09-11T18:30:00.797Z,4.60
2018-09-11T18:32:29.101Z,4.97
2018-09-11T18:34:57.308Z,3.90
2018-09-11T18:37:25.636Z,4.23
2018-09-11T18:39:53.790Z,4.80
2018-09-11T18:42:22.328Z,4.43
2018-09-11T18:44:50.944Z,3.90
2018-09-11T18:47:19.157Z,6.77
2018-09-11T18:49:47.390Z,8.20
2018-09-11T18:52:15.600Z,5.07
2018-09-11T18:54:43.791Z,4.67
2018-09-11T18:57:11.993Z,4.93
2018-09-11T18:59:40.206Z,4.93
2018-09-11T19:02:08.419Z,6.73
2018-09-11T19:04:36.629Z,6.47
2018-09-11T19:07:04.854Z,5.30
2018-09-11T19:09:33.201Z,5.60
2018-09-11T19:12:01.477Z,7.50
2018-09-11T19:14:29.679Z,5.23
2018-09-11T19:16:57.896Z,5.30
2018-09-11T19:19:26.094Z,5.43
2018-09-11T19:21:54.297Z,6.33
2018-09-11T19:24:22.541Z,5.57
2018-09-11T19:26:51.165Z,4.97
2018-09-11T19:29:19.499Z,5.33
2018-09-11T19:31:47.732Z,4.70
2018-09-11T19:34:16.075Z,7.23
2018-09-11T19:36:44.242Z,4.77
2018-09-11T19:39:12.511Z,6.30
2018-09-11T19:41:40.743Z,5.03
2018-09-11T19:44:08.929Z,6.07
2018-09-11T19:46:37.130Z,6.63
2018-09-11T19:49:05.697Z,5.53
2018-09-11T19:51:33.887Z,6.17
2018-09-11T19:54:02.302Z,7.20
2018-09-11T19:56:30.526Z,6.27
2018-09-11T19:58:58.800Z,6.97
2018-09-11T20:01:26.972Z,5.57
2018-09-11T20:03:55.171Z,5.70
2018-09-11T20:06:23.399Z,5.60
2018-09-11T20:08:51.754Z,6.47
2018-09-11T20:11:20.019Z,5.67
2018-09-11T20:13:48.238Z,6.97
2018-09-11T20:16:16.446Z,8.07
2018-09-11T20:18:44.692Z,6.40
2018-09-11T20:21:12.870Z,7.20
2018-09-11T20:23:41.167Z,7.80
2018-09-11T20:26:09.395Z,6.67
2018-09-11T20:28:37.707Z,6.50
2018-09-11T20:31:06.116Z,7.83
2018-09-11T20:33:34.329Z,6.90
2018-09-11T20:36:02.574Z,6.07
2018-09-11T20:38:30.823Z,9.10
2018-09-11T20:40:59.056Z,8.50
2018-09-11T20:43:27.257Z,7.07
2018-09-11T20:45:55.657Z,6.20
2018-09-11T20:48:23.845Z,6.83
2018-09-11T20:50:52.052Z,6.53
2018-09-11T20:53:20.320Z,7.20
2018-09-11T20:55:48.575Z,6.43
2018-09-11T20:58:16.735Z,5.63
2018-09-11T21:00:44.972Z,5.80
2018-09-11T21:03:13.243Z,6.23
2018-09-11T21:05:41.473Z,6.83
2018-09-11T21:08:09.714Z,5.73
2018-09-11T21:10:38.089Z,6.90
2018-09-11T21:13:06.376Z,6.33
2018-09-11T21:15:34.558Z,6.63
2018-09-11T21:18:02.720Z,6.63
2018-09-11T21:20:30.874Z,6.07
2018-09-11T21:22:59.045Z,6.93
2018-09-11T21:25:27.225Z,6.33
2018-09-11T21:27:55.373Z,7.43
2018-09-11T21:30:23.581Z,7.77
2018-09-11T21:32:51.769Z,5.97
2018-09-11T21:35:19.956Z,6.90
2018-09-11T21:37:48.148Z,6.87
2018-09-11T21:40:16.442Z,7.33
2018-09-11T21:42:44.631Z,6.10
2018-09-11T21:45:12.872Z,7.40
2018-09-11T21:47:41.065Z,7.13
2018-09-11T21:50:09.245Z,7.37
2018-09-11T21:52:37.455Z,7.90
2018-09-11T21:55:05.618Z,6.87
2018-09-11T21:57:33.963Z,6.70
2018-09-11T22:00:02.182Z,6.80
2018-09-11T22:02:30.357Z,12.17
2018-09-11T22:04:58.572Z,7.20
2018-09-11T22:07:26.761Z,6.33
2018-09-11T22:09:54.964Z,9.40
2018-09-11T22:12:23.156Z,7.50
2018-09-11T22:14:51.352Z,6.63
2018-09-11T22:17:19.519Z,7.23
2018-09-11T22:19:47.713Z,7.37
2018-09-11T22:22:15.892Z,9.80
2018-09-11T22:24:44.189Z,6.37
2018-09-11T22:27:12.363Z,8.67
2018-09-11T22:29:40.593Z,7.80
2018-09-11T22:32:08.928Z,7.60
2018-09-11T22:34:37.084Z,6.57
2018-09-11T22:37:05.254Z,6.43
2018-09-11T22:39:33.443Z,6.93
2018-09-11T22:42:01.697Z,8.50
2018-09-11T22:44:29.853Z,7.20
2018-09-11T22:46:58.039Z,9.23
2018-09-11T22:49:26.219Z,7.27
2018-09-11T22:51:54.407Z,5.63
2018-09-11T22:54:22.638Z,8.60
2018-09-11T22:56:50.843Z,6.80
2018-09-11T22:59:19.015Z,7.07
2018-09-11T23:01:47.207Z,7.77
2018-09-11T23:04:15.403Z,7.00
2018-09-11T23:06:43.618Z,7.67
2018-09-11T23:09:11.882Z,8.20
2018-09-11T23:11:40.059Z,10.70
2018-09-11T23:14:08.233Z,8.00
2018-09-11T23:16:36.443Z,6.60
2018-09-11T23:19:04.704Z,7.47
2018-09-11T23:21:33.332Z,8.07
2018-09-11T23:24:01.544Z,6.70
2018-09-11T23:26:29.721Z,6.77
2018-09-11T23:28:57.886Z,6.87
2018-09-11T23:31:26.076Z,7.53
2018-09-11T23:33:54.240Z,7.60
2018-09-11T23:36:22.419Z,8.63
2018-09-11T23:38:50.639Z,6.70
2018-09-11T23:41:18.828Z,7.03
2018-09-11T23:43:47.246Z,6.80
2018-09-11T23:46:15.437Z,7.63
2018-09-11T23:48:43.599Z,8.57
2018-09-11T23:51:11.790Z,9.17
2018-09-11T23:53:39.956Z,10.57
2018-09-11T23:56:08.150Z,8.03
2018-09-11T23:58:36.363Z,7.10
